Time;durP1;ratioP1;P1;durP2;ratioP2;P2;SDS_P1;SDS_P2;PMS_P1;PMS_P2;Temp;Humidity;BMP_temperature;BMP_pressure;BME280_temperature;BME280_humidity;BME280_pressure;Samples;Min_cycle;Max_cycle;Signal;HPM_P1;HPM_P2
2022/04/20 00:01:05;;;;;;;4.08;1.47;;;13.90;92.10;;;;;;1961383;72;22059;-85
2022/04/20 00:04:15;;;;;;;2.30;1.40;;;13.80;92.60;;;;;;1931353;73;21199;-86
2022/04/20 00:07:26;;;;;;;4.42;1.57;;;13.80;92.60;;;;;;1917748;75;21141;-85
2022/04/20 00:10:17;;;;;;;5.67;1.40;;;13.80;92.80;;;;;;1917692;75;21229;-85
2022/04/20 00:13:27;;;;;;;2.40;1.20;;;13.80;93.20;;;;;;1940376;73;21058;-85
2022/04/20 00:16:18;;;;;;;2.05;1.10;;;13.80;93.80;;;;;;1917720;75;21051;-85
2022/04/20 00:21:48;;;;;;;2.17;1.10;;;13.70;94.40;;;;;;1942169;72;22149;-84
2022/04/20 00:27:40;;;;;;;3.50;1.20;;;13.60;94.50;;;;;;1951172;72;22083;-84
2022/04/20 00:30:51;;;;;;;3.45;1.40;;;13.60;99.40;;;;;;1917583;75;21547;-84
2022/04/20 00:36:41;;;;;;;3.70;1.20;;;13.30;99.90;;;;;;1976334;72;22286;-84
2022/04/20 00:39:50;;;;;;;2.85;1.17;;;13.30;99.90;;;;;;1939753;73;21047;-84
2022/04/20 00:43:01;;;;;;;2.30;1.12;;;13.30;99.90;;;;;;1917738;75;21031;-86
2022/04/20 00:45:54;;;;;;;2.42;1.22;;;13.30;99.90;;;;;;1917740;75;21568;-85
2022/04/20 00:51:52;;;;;;;5.60;1.57;;;13.40;99.90;;;;;;1954872;72;23351;-86
2022/04/20 00:55:03;;;;;;;3.00;1.32;;;13.40;99.90;;;;;;1897339;75;21158;-86
2022/04/20 00:58:14;;;;;;;2.37;1.20;;;13.50;99.90;;;;;;1904407;75;21087;-86
2022/04/20 01:01:06;;;;;;;1.72;0.82;;;13.50;99.90;;;;;;1899273;75;21047;-86
2022/04/20 01:04:16;;;;;;;3.60;1.60;;;13.40;99.90;;;;;;1898067;75;21047;-85
2022/04/20 01:07:14;;;;;;;2.55;1.30;;;13.50;99.90;;;;;;1884502;76;21184;-86
2022/04/20 01:10:16;;;;;;;3.00;1.37;;;13.50;99.90;;;;;;1884664;76;21150;-86
2022/04/20 01:13:18;;;;;;;2.33;1.20;;;13.50;99.90;;;;;;1884792;76;21597;-86
2022/04/20 01:16:12;;;;;;;5.75;1.42;;;13.40;99.90;;;;;;1885042;76;21169;-87
2022/04/20 01:21:48;;;;;;;2.15;0.90;;;13.30;99.90;;;;;;1966733;72;22121;-85
2022/04/20 01:25:15;;;;;;;1.90;1.15;;;13.30;99.90;;;;;;1939240;73;21063;-87
2022/04/20 01:31:24;;;;;;;2.80;1.25;;;13.20;99.90;;;;;;1946716;72;22121;-85
2022/04/20 01:34:52;;;;;;;;;;;13.20;99.90;;;;;;1919585;75;21113;-86
2022/04/20 01:37:43;;;;;;;7.25;3.08;;;13.10;99.90;;;;;;1895695;75;20181;-86
2022/04/20 01:40:35;;;;;;;4.72;2.10;;;13.00;99.90;;;;;;1895705;75;21252;-86
2022/04/20 01:43:27;;;;;;;4.00;2.85;;;13.00;99.90;;;;;;1901239;75;21051;-86
2022/04/20 01:46:20;;;;;;;5.42;2.35;;;13.00;99.90;;;;;;1911373;75;21168;-86
2022/04/20 01:49:22;;;;;;;5.60;2.65;;;12.90;99.90;;;;;;1908210;75;21130;-85
2022/04/20 01:52:28;;;;;;;4.80;2.25;;;12.90;99.90;;;;;;1890806;75;21059;-85
2022/04/20 01:58:09;;;;;;;4.67;2.25;;;12.80;99.90;;;;;;1938286;72;27910;-84
2022/04/20 02:04:50;;;;;;;;;;;13.00;99.90;;;;;;1907440;75;21101;-85
2022/04/20 02:07:42;;;;;;;5.35;1.35;;;12.80;99.90;;;;;;1900468;75;20139;-85
2022/04/20 02:10:34;;;;;;;2.95;1.37;;;12.80;99.90;;;;;;1915553;75;21152;-85
2022/04/20 02:13:27;;;;;;;2.00;1.35;;;12.80;99.90;;;;;;1891404;75;21054;-85
2022/04/20 02:16:20;;;;;;;4.00;0.90;;;12.70;99.90;;;;;;1910889;74;21115;-85
2022/04/20 02:19:30;;;;;;;2.75;1.00;;;12.70;99.90;;;;;;1917668;75;21614;-85
2022/04/20 02:22:23;;;;;;;1.35;1.10;;;12.80;99.90;;;;;;1911543;75;21063;-85
2022/04/20 02:25:14;;;;;;;2.80;1.35;;;12.70;99.90;;;;;;1896012;75;21088;-86
2022/04/20 02:28:06;;;;;;;2.27;1.07;;;12.60;99.90;;;;;;1895909;75;21140;-86
2022/04/20 02:30:59;;;;;;;6.53;2.00;;;12.60;99.90;;;;;;1906818;75;21059;-84
2022/04/20 02:36:32;;;;;;;2.10;1.20;;;12.60;99.90;;;;;;1941726;72;22187;-84
2022/04/20 02:39:43;;;;;;;2.00;1.00;;;12.60;99.90;;;;;;1910672;74;21142;-85
2022/04/20 02:42:53;;;;;;;3.52;1.30;;;12.50;99.90;;;;;;1917735;75;21100;-86
2022/04/20 02:45:44;;;;;;;4.60;1.52;;;12.50;99.90;;;;;;1914584;74;21057;-85
2022/04/20 02:48:54;;;;;;;1.80;1.00;;;12.50;99.90;;;;;;1914840;75;21185;-85
2022/04/20 02:54:24;;;;;;;2.98;0.90;;;12.40;99.90;;;;;;1954568;73;22142;-84
2022/04/20 02:57:35;;;;;;;2.33;0.90;;;12.40;99.90;;;;;;1896206;74;21133;-85
2022/04/20 03:00:45;;;;;;;2.42;0.88;;;12.30;99.90;;;;;;1887001;75;21143;-86
2022/04/20 03:03:38;;;;;;;3.75;1.07;;;12.30;99.90;;;;;;1907338;75;21171;-86
2022/04/20 03:07:06;;;;;;;4.70;1.10;;;12.30;99.90;;;;;;1907272;75;21142;-86
2022/04/20 03:10:00;;;;;;;1.40;1.10;;;12.20;99.90;;;;;;1910561;75;21071;-87
2022/04/20 03:12:53;;;;;;;1.80;1.40;;;12.20;99.90;;;;;;1898142;75;21103;-85
2022/04/20 03:15:46;;;;;;;1.75;1.05;;;12.20;99.90;;;;;;1900581;75;21134;-85
2022/04/20 03:18:38;;;;;;;2.15;1.00;;;12.20;99.90;;;;;;1918053;75;21051;-86
2022/04/20 03:21:32;;;;;;;2.25;1.07;;;12.20;99.90;;;;;;1890572;75;21138;-86
2022/04/20 03:24:25;;;;;;;3.00;1.12;;;12.20;99.90;;;;;;1908158;75;21048;-86
2022/04/20 03:27:21;;;;;;;1.72;0.98;;;12.20;99.90;;;;;;1918186;75;21063;-86
2022/04/20 03:30:14;;;;;;;8.65;1.47;;;12.10;99.90;;;;;;1918152;75;21051;-86
2022/04/20 03:33:09;;;;;;;1.60;0.98;;;12.10;99.90;;;;;;1909611;75;21180;-86
2022/04/20 03:36:01;;;;;;;2.30;1.00;;;12.10;99.90;;;;;;1907186;75;21112;-86
2022/04/20 03:41:31;;;;;;;1.12;0.90;;;12.10;99.90;;;;;;1962229;72;22126;-85
2022/04/20 03:47:20;;;;;;;5.28;1.30;;;12.10;99.90;;;;;;1953647;72;22143;-85
2022/04/20 03:50:30;;;;;;;2.17;1.00;;;12.10;99.90;;;;;;1888699;75;21108;-86
2022/04/20 03:53:41;;;;;;;3.00;1.02;;;12.20;99.90;;;;;;1907517;75;21589;-86
2022/04/20 04:00:03;;;;;;;1.82;1.00;;;12.10;99.90;;;;;;1906867;75;21156;-86
2022/04/20 04:02:56;;;;;;;0.78;0.70;;;12.00;99.90;;;;;;1899875;75;21135;-86
2022/04/20 04:05:58;;;;;;;1.52;0.80;;;12.00;99.90;;;;;;1902967;75;21082;-86
2022/04/20 04:11:29;;;;;;;2.08;0.82;;;11.90;99.90;;;;;;1957689;72;22159;-85
2022/04/20 04:14:42;;;;;;;2.50;1.00;;;11.80;99.90;;;;;;1906543;75;21044;-86
2022/04/20 04:17:54;;;;;;;3.40;0.90;;;11.80;99.90;;;;;;1914065;75;21032;-86
2022/04/20 04:20:47;;;;;;;1.67;0.85;;;11.70;99.90;;;;;;1900782;75;21180;-85
2022/04/20 04:24:01;;;;;;;1.22;1.10;;;11.70;99.90;;;;;;1891839;75;21052;-87
2022/04/20 04:26:55;;;;;;;1.85;1.07;;;11.70;99.90;;;;;;1885191;76;21095;-86
2022/04/20 04:32:26;;;;;;;2.87;1.45;;;11.80;99.90;;;;;;1954593;72;22192;-85
2022/04/20 04:38:16;;;;;;;2.58;0.93;;;11.60;99.90;;;;;;1964377;72;22138;-84
2022/04/20 04:41:25;;;;;;;2.10;1.00;;;11.60;99.90;;;;;;1917923;73;21104;-86
2022/04/20 04:50:46;;;;;;;3.80;1.10;;;11.60;99.90;;;;;;1934086;74;21070;-86
2022/04/20 04:53:56;;;;;;;4.15;1.42;;;11.50;99.90;;;;;;1915470;74;21131;-87
2022/04/20 04:56:55;;;;;;;3.15;1.72;;;11.40;99.90;;;;;;1923673;74;21099;-86
2022/04/20 05:00:08;;;;;;;2.17;1.52;;;11.50;99.90;;;;;;1900689;75;21117;-85
2022/04/20 05:03:01;;;;;;;1.47;1.12;;;11.50;99.90;;;;;;1905399;75;21095;-86
2022/04/20 05:05:54;;;;;;;5.53;1.70;;;11.60;99.90;;;;;;1905407;75;21110;-86
2022/04/20 05:11:30;;;;;;;3.90;1.32;;;11.60;99.90;;;;;;1957280;72;22591;-86
2022/04/20 05:17:17;;;;;;;4.70;1.50;;;11.60;99.90;;;;;;1958310;72;22174;-86
2022/04/20 05:20:27;;;;;;;2.12;1.42;;;11.60;99.90;;;;;;1923213;73;21074;-86
2022/04/20 05:23:38;;;;;;;6.70;1.85;;;11.60;99.90;;;;;;1892277;75;21541;-85
2022/04/20 05:26:31;;;;;;;2.62;1.37;;;11.60;99.90;;;;;;1891701;75;21039;-85
2022/04/20 05:29:41;;;;;;;2.27;1.20;;;11.70;99.90;;;;;;1905812;75;21142;-85
2022/04/20 05:32:33;;;;;;;2.90;1.55;;;11.70;99.90;;;;;;1895557;75;21051;-85
2022/04/20 05:41:43;;;;;;;1.87;1.40;;;11.80;99.90;;;;;;1919291;74;21050;-85
2022/04/20 05:47:34;;;;;;;3.15;1.50;;;11.70;99.90;;;;;;1952569;72;22162;-86
2022/04/20 05:50:45;;;;;;;2.35;1.72;;;11.80;99.90;;;;;;1908381;73;21125;-86
2022/04/20 05:56:36;;;;;;;6.65;1.90;;;11.90;99.90;;;;;;1937322;72;23653;-86
2022/04/20 06:02:25;;;;;;;3.85;1.50;;;12.00;99.90;;;;;;1942105;72;22264;-86
2022/04/20 06:05:35;;;;;;;5.40;1.75;;;12.00;99.90;;;;;;1888529;74;21114;-84
2022/04/20 06:08:56;;;;;;;3.27;1.45;;;12.00;99.90;;;;;;1911022;74;21447;-85
2022/04/20 06:11:52;;;;;;;2.83;1.35;;;12.00;99.90;;;;;;1921637;74;21147;-85
2022/04/20 06:15:03;;;;;;;4.60;1.57;;;11.90;99.90;;;;;;1912737;74;21351;-86
2022/04/20 06:17:56;;;;;;;5.80;1.52;;;11.80;99.90;;;;;;1921856;74;21101;-85
2022/04/20 06:20:49;;;;;;;3.62;1.30;;;11.90;99.90;;;;;;1905667;74;21638;-85
2022/04/20 06:26:28;;;;;;;2.72;1.80;;;11.90;99.90;;;;;;1941701;72;22204;-86
2022/04/20 06:29:40;;;;;;;3.25;1.70;;;11.90;99.90;;;;;;1884304;76;21109;-85
2022/04/20 06:35:38;;;;;;;4.28;1.82;;;11.80;99.90;;;;;;1956466;72;22200;-86
2022/04/20 06:41:33;;;;;;;2.52;1.75;;;12.00;99.90;;;;;;1950637;72;22453;-87
2022/04/20 06:45:03;;;;;;;2.95;1.77;;;12.10;99.90;;;;;;1893334;75;21115;-85
2022/04/20 06:48:14;;;;;;;3.42;2.10;;;12.10;99.90;;;;;;1886799;75;21051;-85
2022/04/20 06:51:07;;;;;;;2.12;1.75;;;12.30;99.90;;;;;;1905221;75;21193;-85
2022/04/20 07:00:34;;;;;;;9.23;1.80;;;12.50;99.90;;;;;;1944827;73;21094;-86
2022/04/20 07:03:49;;;;;;;7.25;2.10;;;12.70;99.90;;;;;;1896547;73;21039;-86
2022/04/20 07:06:48;;;;;;;5.55;2.05;;;12.80;99.90;;;;;;1947329;73;21183;-87
2022/04/20 07:10:04;;;;;;;4.25;1.90;;;13.00;99.90;;;;;;1923279;73;21058;-85
2022/04/20 07:13:00;;;;;;;4.35;2.00;;;13.00;99.90;;;;;;1931899;73;21580;-86
2022/04/20 07:15:53;;;;;;;2.80;1.45;;;12.90;99.90;;;;;;1929390;74;21043;-87
2022/04/20 07:21:29;;;;;;;2.80;1.80;;;13.10;99.90;;;;;;1937515;72;22278;-85
2022/04/20 07:24:53;;;;;;;3.47;1.95;;;13.20;99.90;;;;;;1892922;74;21610;-85
2022/04/20 07:31:06;;;;;;;4.90;2.55;;;13.30;99.90;;;;;;1932712;72;28460;-86
2022/04/20 07:34:34;;;;;;;4.42;2.40;;;13.50;99.90;;;;;;1929028;73;21328;-85
2022/04/20 07:37:48;;;;;;;4.10;1.85;;;13.50;99.90;;;;;;1905806;73;21148;-85
2022/04/20 07:40:58;;;;;;;7.35;2.87;;;13.50;99.90;;;;;;1918322;73;21208;-85
2022/04/20 07:44:20;;;;;;;6.65;2.95;;;13.60;99.90;;;;;;1932817;73;21498;-85
2022/04/20 07:47:13;;;;;;;7.70;2.90;;;13.70;99.90;;;;;;1917468;75;21187;-85
2022/04/20 07:52:47;;;;;;;6.92;2.62;;;13.90;99.90;;;;;;1941999;72;22160;-83
2022/04/20 07:56:02;;;;;;;4.78;2.08;;;13.90;99.90;;;;;;1914925;75;21557;-84
2022/04/20 08:01:52;;;;;;;6.92;2.90;;;13.90;99.90;;;;;;1941219;72;22134;-84
2022/04/20 08:08:01;;;;;;;3.75;2.50;;;14.20;99.90;;;;;;1954822;72;22116;-83
2022/04/20 08:11:13;;;;;;;5.67;2.40;;;14.30;99.90;;;;;;1917508;75;21087;-86
2022/04/20 08:14:23;;;;;;;6.05;2.55;;;14.30;99.90;;;;;;1917352;75;21580;-84
2022/04/20 08:17:19;;;;;;;7.22;2.80;;;14.40;99.90;;;;;;1942711;73;21141;-84
2022/04/20 08:23:11;;;;;;;3.70;1.57;;;14.60;99.90;;;;;;1952734;72;22253;-85
2022/04/20 08:26:21;;;;;;;4.08;1.98;;;14.60;99.90;;;;;;1911594;75;21664;-84
2022/04/20 08:29:31;;;;;;;6.25;2.35;;;14.70;99.90;;;;;;1906671;75;21117;-85
2022/04/20 08:32:23;;;;;;;4.95;1.70;;;14.80;99.90;;;;;;1897196;75;21107;-85
2022/04/20 08:35:32;;;;;;;4.97;1.40;;;14.90;99.90;;;;;;1913239;75;21085;-85
2022/04/20 08:41:04;;;;;;;2.15;1.17;;;15.00;99.90;;;;;;1933721;72;22595;-83
2022/04/20 08:44:17;;;;;;;3.20;1.50;;;15.10;99.90;;;;;;1901260;74;21106;-84
2022/04/20 08:47:29;;;;;;;3.52;1.22;;;15.20;99.90;;;;;;1906833;75;21533;-84
2022/04/20 08:50:20;;;;;;;3.83;1.57;;;15.20;99.90;;;;;;1911185;75;21161;-85
2022/04/20 08:53:33;;;;;;;5.22;1.90;;;15.40;99.90;;;;;;1895839;75;21101;-84
2022/04/20 08:59:09;;;;;;;6.30;1.98;;;15.50;99.90;;;;;;1942886;72;22165;-83
2022/04/20 09:02:20;;;;;;;4.15;2.10;;;15.50;99.90;;;;;;1915246;75;21042;-85
2022/04/20 09:08:18;;;;;;;3.50;1.67;;;15.70;99.90;;;;;;1951169;72;22151;-83
2022/04/20 09:11:30;;;;;;;10.30;2.10;;;15.80;99.90;;;;;;1918355;73;21142;-84
2022/04/20 09:14:41;;;;;;;4.03;1.80;;;15.90;99.90;;;;;;1938681;73;21051;-85
2022/04/20 09:17:35;;;;;;;3.60;1.70;;;16.00;99.90;;;;;;1951156;73;21232;-84
2022/04/20 09:20:47;;;;;;;3.95;1.87;;;16.10;99.90;;;;;;1912394;73;21125;-84
2022/04/20 09:23:39;;;;;;;3.25;1.25;;;16.20;99.90;;;;;;1917511;75;21046;-84
2022/04/20 09:26:30;;;;;;;3.70;1.70;;;16.40;99.90;;;;;;1917409;75;21100;-84
2022/04/20 09:29:22;;;;;;;2.37;1.80;;;16.40;99.90;;;;;;1922024;73;21087;-84
2022/04/20 09:32:15;;;;;;;4.97;1.50;;;16.40;99.90;;;;;;1917371;75;21106;-84
2022/04/20 09:35:10;;;;;;;4.10;1.10;;;16.40;99.90;;;;;;1923828;73;21526;-84
2022/04/20 09:38:07;;;;;;;2.35;1.10;;;16.50;99.90;;;;;;1917033;74;21071;-85
2022/04/20 09:41:10;;;;;;;3.33;1.20;;;16.50;99.90;;;;;;1931206;73;21103;-85
2022/04/20 09:44:14;;;;;;;3.20;1.20;;;16.60;99.90;;;;;;1923247;73;21173;-84
2022/04/20 09:52:57;;;;;;;2.33;1.17;;;17.00;99.90;;;;;;1955723;72;22110;-84
2022/04/20 09:59:06;;;;;;;2.17;1.25;;;17.00;99.90;;;;;;1944690;72;22606;-86
2022/04/20 10:02:17;;;;;;;3.98;1.12;;;17.20;99.90;;;;;;1909794;75;21056;-84
2022/04/20 10:05:28;;;;;;;6.03;1.55;;;17.30;99.90;;;;;;1910365;73;21102;-84
2022/04/20 10:08:20;;;;;;;3.42;1.22;;;17.50;99.90;;;;;;1908530;75;21147;-85
2022/04/20 10:11:32;;;;;;;7.37;1.50;;;17.50;99.90;;;;;;1894280;75;21125;-85
2022/04/20 10:17:07;;;;;;;3.67;1.30;;;17.70;99.90;;;;;;1958107;72;22182;-85
2022/04/20 10:20:17;;;;;;;4.67;1.27;;;17.90;99.90;;;;;;1917504;75;21056;-84
2022/04/20 10:23:29;;;;;;;4.78;1.47;;;18.20;99.90;;;;;;1914604;75;21047;-86
2022/04/20 10:26:22;;;;;;;3.62;1.35;;;18.40;99.90;;;;;;1914402;74;21118;-85
2022/04/20 10:29:36;;;;;;;2.62;1.05;;;18.60;99.90;;;;;;1917170;75;21191;-84
2022/04/20 10:32:30;;;;;;;2.05;0.80;;;18.70;99.90;;;;;;1917775;75;21121;-85
2022/04/20 10:35:24;;;;;;;5.62;1.00;;;18.90;97.70;;;;;;1901579;75;21506;-83
2022/04/20 10:38:20;;;;;;;4.72;0.90;;;19.00;96.60;;;;;;1897232;75;21118;-83
2022/04/20 10:41:19;;;;;;;2.25;0.70;;;19.20;95.10;;;;;;1913530;75;21153;-84
2022/04/20 10:44:12;;;;;;;1.80;0.70;;;19.30;93.70;;;;;;1880397;76;21138;-84
2022/04/20 10:47:06;;;;;;;1.57;0.80;;;19.50;93.00;;;;;;1917677;75;21060;-84
2022/04/20 10:50:14;;;;;;;3.22;0.70;;;19.40;92.10;;;;;;1904678;74;21574;-84
2022/04/20 10:53:08;;;;;;;2.65;0.80;;;19.50;91.70;;;;;;1924167;74;21075;-83
2022/04/20 10:56:03;;;;;;;1.98;0.90;;;19.30;90.90;;;;;;1919879;74;21033;-84
2022/04/20 10:59:10;;;;;;;1.50;0.72;;;19.50;90.80;;;;;;1918425;74;21096;-84
2022/04/20 11:02:09;;;;;;;2.90;0.80;;;19.50;90.80;;;;;;1918165;74;21118;-84
2022/04/20 11:05:14;;;;;;;3.87;0.80;;;19.60;90.80;;;;;;1919565;74;21458;-83
2022/04/20 11:08:09;;;;;;;2.05;0.80;;;19.70;90.60;;;;;;1886958;76;21101;-84
2022/04/20 11:21:19;;;;;;;3.00;0.80;;;19.70;91.00;;;;;;1905319;75;21063;-83
2022/04/20 11:24:12;;;;;;;1.65;0.62;;;20.00;91.20;;;;;;1905213;75;21071;-83
2022/04/20 11:27:06;;;;;;;4.50;1.00;;;19.90;91.10;;;;;;1899419;75;21127;-84
2022/04/20 11:29:59;;;;;;;2.50;0.98;;;20.20;91.00;;;;;;1916963;75;21587;-83
2022/04/20 11:32:51;;;;;;;2.85;0.80;;;20.00;91.10;;;;;;1904722;75;21170;-84
2022/04/20 11:35:59;;;;;;;1.85;0.93;;;20.10;91.70;;;;;;1916979;75;21078;-84
2022/04/20 11:38:53;;;;;;;2.80;0.90;;;20.10;91.70;;;;;;1916904;75;21181;-84
2022/04/20 11:41:47;;;;;;;3.80;1.45;;;20.00;91.90;;;;;;1888367;75;21055;-84
2022/04/20 11:44:41;;;;;;;1.45;1.10;;;20.10;92.40;;;;;;1887147;75;21045;-83
2022/04/20 11:47:40;;;;;;;2.67;1.20;;;20.10;92.60;;;;;;1914183;75;21117;-84
2022/04/20 11:50:34;;;;;;;2.37;1.12;;;20.10;92.80;;;;;;1906573;75;21118;-84
2022/04/20 11:53:36;;;;;;;2.83;1.75;;;20.10;92.60;;;;;;1904396;75;21050;-84
2022/04/20 11:56:40;;;;;;;4.53;1.00;;;20.10;93.20;;;;;;1878889;76;21079;-84
2022/04/20 11:59:32;;;;;;;1.62;0.93;;;20.10;93.10;;;;;;1910716;73;21180;-84
2022/04/20 12:02:28;;;;;;;3.22;1.12;;;20.10;93.10;;;;;;1901919;75;21054;-84
2022/04/20 12:05:22;;;;;;;2.10;1.27;;;20.10;93.00;;;;;;1906005;75;21071;-83
2022/04/20 12:08:16;;;;;;;5.78;1.10;;;20.20;93.30;;;;;;1904336;75;21099;-85
2022/04/20 12:11:09;;;;;;;1.37;1.15;;;20.20;93.10;;;;;;1904176;75;21139;-84
2022/04/20 12:14:01;;;;;;;2.27;1.30;;;20.20;93.10;;;;;;1888462;75;21067;-84
2022/04/20 12:16:57;;;;;;;2.17;0.95;;;20.10;93.80;;;;;;1904307;75;21148;-85
2022/04/20 12:19:53;;;;;;;2.87;1.30;;;20.30;94.20;;;;;;1917125;75;21253;-85
2022/04/20 12:22:44;;;;;;;1.30;1.00;;;20.20;94.20;;;;;;1916924;75;21116;-84
2022/04/20 12:26:01;;;;;;;3.02;1.20;;;20.10;94.00;;;;;;1916499;75;21169;-85
2022/04/20 12:29:00;;;;;;;5.58;1.50;;;20.10;94.30;;;;;;1916983;75;21088;-84
2022/04/20 12:32:06;;;;;;;3.47;1.50;;;20.00;94.60;;;;;;1856755;76;21154;-85
2022/04/20 12:35:01;;;;;;;3.60;1.22;;;20.00;94.80;;;;;;1896775;75;21095;-84
2022/04/20 12:38:00;;;;;;;3.25;1.10;;;20.10;94.70;;;;;;1916831;75;21105;-85
2022/04/20 12:40:53;;;;;;;6.50;1.30;;;20.00;94.80;;;;;;1886944;75;21129;-84
2022/04/20 12:43:47;;;;;;;1.85;1.22;;;19.90;95.60;;;;;;1904651;75;21467;-84
2022/04/20 12:46:41;;;;;;;1.95;1.32;;;20.10;95.60;;;;;;1904667;75;21113;-85
2022/04/20 12:49:53;;;;;;;3.12;1.40;;;20.10;95.60;;;;;;1883825;76;21058;-84
2022/04/20 12:53:02;;;;;;;3.50;1.52;;;20.00;95.30;;;;;;1897577;74;21041;-84
2022/04/20 13:02:20;;;;;;;5.00;1.77;;;19.80;96.80;;;;;;1904234;75;21083;-85
2022/04/20 13:05:18;;;;;;;5.87;1.75;;;19.90;97.00;;;;;;1858995;76;21072;-84
2022/04/20 13:08:15;;;;;;;5.12;1.80;;;19.70;97.00;;;;;;1850911;75;21110;-85
2022/04/20 13:11:14;;;;;;;5.20;1.70;;;19.60;97.60;;;;;;1893864;75;21136;-84
2022/04/20 13:14:15;;;;;;;2.83;1.60;;;19.70;98.20;;;;;;1886766;75;21150;-84
2022/04/20 13:17:09;;;;;;;2.72;1.75;;;19.50;98.40;;;;;;1864558;75;21070;-86
2022/04/20 13:20:04;;;;;;;6.58;1.77;;;19.50;98.70;;;;;;1916583;75;21078;-84
2022/04/20 13:22:56;;;;;;;5.17;1.82;;;19.40;99.20;;;;;;1875924;76;21051;-84
2022/04/20 13:29:12;;;;;;;2.47;1.82;;;19.30;99.80;;;;;;1773853;78;21118;-84
2022/04/20 13:32:09;;;;;;;1.92;1.55;;;19.30;99.90;;;;;;1848105;77;21063;-84
2022/04/20 13:35:03;;;;;;;2.70;1.70;;;19.20;99.90;;;;;;1809728;78;21141;-84
2022/04/20 13:40:38;;;;;;;3.22;1.80;;;19.20;99.90;;;;;;1953780;72;22176;-83
2022/04/20 13:43:48;;;;;;;2.67;1.77;;;19.00;99.90;;;;;;1906191;75;21084;-84
2022/04/20 13:46:58;;;;;;;5.67;2.02;;;18.90;99.90;;;;;;1904634;75;21087;-83
2022/04/20 13:49:50;;;;;;;6.15;1.70;;;19.00;99.90;;;;;;1902277;75;21141;-86
2022/04/20 13:53:02;;;;;;;3.05;1.70;;;18.90;99.90;;;;;;1898465;75;21048;-84
2022/04/20 13:55:53;;;;;;;4.45;1.92;;;18.90;99.90;;;;;;1895071;75;21146;-84
2022/04/20 13:58:46;;;;;;;5.17;2.10;;;18.80;99.90;;;;;;1895079;75;21588;-84
2022/04/20 14:01:37;;;;;;;5.25;2.20;;;18.70;99.90;;;;;;1896502;75;21051;-84
2022/04/20 14:04:30;;;;;;;3.62;2.22;;;18.60;99.90;;;;;;1900222;75;21612;-85
2022/04/20 14:07:23;;;;;;;3.22;2.12;;;18.50;99.90;;;;;;1895938;75;21141;-83
2022/04/20 14:10:15;;;;;;;5.50;1.80;;;18.50;99.90;;;;;;1888965;75;21128;-84
2022/04/20 14:13:10;;;;;;;3.95;1.95;;;18.50;99.90;;;;;;1906604;75;21153;-83
2022/04/20 14:16:02;;;;;;;3.83;1.90;;;18.40;99.90;;;;;;1903649;75;21526;-84
2022/04/20 14:18:55;;;;;;;2.55;1.70;;;18.50;99.90;;;;;;1899319;75;21510;-84
2022/04/20 14:21:47;;;;;;;2.35;1.60;;;18.40;99.90;;;;;;1895239;75;21192;-83
2022/04/20 14:24:39;;;;;;;4.72;2.20;;;18.40;99.90;;;;;;1895380;75;21220;-84
2022/04/20 14:33:56;;;;;;;3.95;1.87;;;18.40;99.90;;;;;;1904042;75;21116;-83
2022/04/20 14:36:48;;;;;;;3.08;1.90;;;18.50;99.90;;;;;;1884611;75;21585;-85
2022/04/20 14:39:42;;;;;;;2.70;2.00;;;18.40;99.90;;;;;;1908714;74;21079;-84
2022/04/20 14:42:35;;;;;;;2.83;1.85;;;18.40;99.90;;;;;;1899127;74;21039;-83
2022/04/20 14:45:28;;;;;;;4.25;2.58;;;18.40;99.90;;;;;;1904915;74;21290;-84
2022/04/20 14:48:20;;;;;;;4.80;1.87;;;18.40;99.90;;;;;;1909592;74;21493;-84
2022/04/20 14:51:12;;;;;;;3.05;2.25;;;18.30;99.90;;;;;;1906023;74;21104;-84
2022/04/20 14:54:04;;;;;;;2.83;2.10;;;18.30;99.90;;;;;;1903929;74;21523;-84
2022/04/20 14:56:56;;;;;;;2.90;2.10;;;18.30;99.90;;;;;;1902666;74;21136;-84
2022/04/20 14:59:48;;;;;;;3.02;1.98;;;18.40;99.90;;;;;;1911981;74;21103;-84
2022/04/20 15:02:41;;;;;;;3.70;2.20;;;18.40;99.90;;;;;;1913004;74;21585;-84
2022/04/20 15:05:33;;;;;;;4.85;2.00;;;18.50;99.90;;;;;;1915466;74;21153;-84
2022/04/20 15:08:25;;;;;;;4.55;2.17;;;18.40;99.90;;;;;;1878634;76;21124;-85
2022/04/20 15:11:18;;;;;;;3.60;2.15;;;18.40;99.90;;;;;;1920438;74;21597;-85
2022/04/20 15:14:10;;;;;;;4.92;2.12;;;18.20;99.90;;;;;;1928706;74;21131;-84
2022/04/20 15:17:02;;;;;;;3.50;2.12;;;18.20;99.90;;;;;;1910501;74;21054;-84
2022/04/20 15:19:54;;;;;;;3.02;1.92;;;18.10;99.90;;;;;;1910513;74;21054;-85
2022/04/20 15:22:47;;;;;;;4.15;2.37;;;18.10;99.90;;;;;;1910571;74;21050;-84
2022/04/20 15:25:39;;;;;;;2.15;1.92;;;18.00;99.90;;;;;;1838804;77;21108;-84
2022/04/20 15:28:30;;;;;;;3.58;2.15;;;18.00;99.90;;;;;;1913122;74;21050;-85
2022/04/20 15:31:22;;;;;;;3.45;2.40;;;18.00;99.90;;;;;;1827679;77;21132;-85
2022/04/20 15:34:14;;;;;;;5.65;2.35;;;18.00;99.90;;;;;;1899409;74;21179;-84
2022/04/20 15:37:06;;;;;;;4.95;2.25;;;17.90;99.90;;;;;;1919528;74;21085;-84
2022/04/20 15:39:59;;;;;;;2.85;2.25;;;17.80;99.90;;;;;;1917510;74;21130;-85
2022/04/20 15:42:53;;;;;;;2.60;2.02;;;17.80;99.90;;;;;;1846106;77;21073;-83
2022/04/20 15:45:45;;;;;;;3.45;2.12;;;17.70;99.90;;;;;;1922186;74;21042;-84
2022/04/20 15:48:37;;;;;;;3.17;2.35;;;17.60;99.90;;;;;;1845660;77;21113;-83
2022/04/20 15:51:29;;;;;;;3.65;2.10;;;17.50;99.90;;;;;;1915939;74;21417;-85
2022/04/20 15:54:21;;;;;;;5.05;2.70;;;17.50;99.90;;;;;;1911725;74;21113;-85
2022/04/20 16:00:24;;;;;;;2.20;2.00;;;17.40;99.90;;;;;;1926674;74;21121;-85
2022/04/20 16:03:16;;;;;;;3.50;2.20;;;17.40;99.90;;;;;;1921553;74;21572;-84
2022/04/20 16:06:09;;;;;;;3.52;2.30;;;17.40;99.90;;;;;;1901440;74;21062;-84
2022/04/20 16:09:00;;;;;;;4.72;2.70;;;17.30;99.90;;;;;;1868744;76;21098;-84
2022/04/20 16:11:54;;;;;;;2.77;2.10;;;17.40;99.90;;;;;;1910026;74;21054;-83
2022/04/20 16:14:45;;;;;;;3.22;2.50;;;17.40;99.90;;;;;;1910380;74;21058;-84
2022/04/20 16:17:38;;;;;;;4.83;2.42;;;17.20;99.90;;;;;;1914265;74;21062;-84
2022/04/20 16:20:29;;;;;;;3.20;2.15;;;17.20;99.90;;;;;;1899691;75;21137;-84
2022/04/20 16:23:21;;;;;;;2.47;2.15;;;17.20;99.90;;;;;;1922278;74;21579;-84
2022/04/20 16:26:13;;;;;;;3.05;2.37;;;17.30;99.90;;;;;;1921598;74;21514;-83
2022/04/20 16:29:05;;;;;;;3.05;2.10;;;17.20;99.90;;;;;;1919424;74;21109;-84
2022/04/20 16:31:58;;;;;;;2.47;1.85;;;17.20;99.90;;;;;;1914969;74;21058;-84
2022/04/20 16:34:50;;;;;;;5.28;2.02;;;17.20;99.90;;;;;;1923426;74;21195;-84
2022/04/20 16:37:42;;;;;;;2.95;2.02;;;17.20;99.90;;;;;;1899683;74;21224;-83
2022/04/20 16:40:34;;;;;;;2.08;1.80;;;17.10;99.90;;;;;;1899561;75;21634;-84
2022/04/20 16:43:27;;;;;;;4.03;2.55;;;17.10;99.90;;;;;;1840448;77;21121;-84
2022/04/20 16:46:19;;;;;;;4.42;2.33;;;17.10;99.90;;;;;;1932889;74;21129;-84
2022/04/20 16:49:12;;;;;;;4.58;2.10;;;17.00;99.90;;;;;;1926301;74;21121;-86
2022/04/20 16:52:06;;;;;;;2.55;2.05;;;16.90;99.90;;;;;;1921958;74;21121;-85
2022/04/20 16:54:58;;;;;;;2.92;1.70;;;17.00;99.90;;;;;;1899557;74;21054;-84
2022/04/20 16:57:50;;;;;;;3.05;1.98;;;17.00;99.90;;;;;;1913791;74;21058;-84
2022/04/20 17:00:43;;;;;;;4.28;2.12;;;17.00;99.90;;;;;;1910594;74;21096;-84
2022/04/20 17:03:35;;;;;;;3.25;2.10;;;17.00;99.90;;;;;;1928733;74;21122;-84
2022/04/20 17:06:28;;;;;;;3.27;2.40;;;16.90;99.90;;;;;;1899610;74;21566;-84
2022/04/20 17:09:20;;;;;;;2.62;2.10;;;16.90;99.90;;;;;;1915440;74;21088;-84
2022/04/20 17:12:12;;;;;;;3.17;1.90;;;16.70;99.90;;;;;;1910457;74;21108;-84
2022/04/20 17:15:04;;;;;;;6.62;2.27;;;16.80;99.90;;;;;;1910269;74;21211;-84
2022/04/20 17:17:55;;;;;;;3.67;1.90;;;16.70;99.90;;;;;;1932472;74;21547;-83
2022/04/20 17:27:06;;;;;;;2.27;1.90;;;16.70;99.90;;;;;;1914034;74;21043;-84
2022/04/20 17:29:57;;;;;;;2.15;1.95;;;16.70;99.90;;;;;;1910529;74;21115;-85
2022/04/20 17:32:50;;;;;;;3.37;2.12;;;16.70;99.90;;;;;;1910840;74;21138;-83
2022/04/20 17:38:50;;;;;;;3.15;2.27;;;16.70;99.90;;;;;;1919987;74;21592;-83
2022/04/20 17:41:44;;;;;;;3.08;1.90;;;16.80;99.90;;;;;;1875400;76;21125;-83
2022/04/20 17:44:37;;;;;;;3.85;1.80;;;16.80;99.90;;;;;;1910021;74;21534;-84
2022/04/20 17:47:28;;;;;;;3.22;1.72;;;16.70;99.90;;;;;;1910865;74;21125;-85
2022/04/20 17:50:22;;;;;;;2.58;1.92;;;16.60;99.90;;;;;;1910182;74;21216;-86
2022/04/20 17:55:54;;;;;;;3.72;1.87;;;16.60;99.90;;;;;;1942028;72;22535;-84
2022/04/20 17:59:04;;;;;;;3.35;1.75;;;16.50;99.90;;;;;;1917505;74;21104;-85
2022/04/20 18:02:16;;;;;;;4.37;2.02;;;16.60;99.90;;;;;;1879914;76;21113;-84
2022/04/20 18:05:09;;;;;;;3.42;1.90;;;16.60;99.90;;;;;;1917523;75;21051;-86
2022/04/20 18:08:19;;;;;;;2.05;1.72;;;16.60;99.90;;;;;;1921856;74;21597;-85
2022/04/20 18:13:51;;;;;;;2.85;2.20;;;16.50;99.90;;;;;;1945345;72;22237;-81
2022/04/20 18:17:01;;;;;;;2.37;2.17;;;16.40;99.90;;;;;;1906857;75;21095;-83
2022/04/20 18:20:13;;;;;;;2.45;2.20;;;16.50;99.90;;;;;;1890591;75;21641;-87
2022/04/20 18:23:05;;;;;;;3.83;2.10;;;16.50;99.90;;;;;;1902389;75;21119;-86